aviador You're here:

KPHP Decoded Metar

PHILIP in SD, USA
Report Time2017-06-25 18:55:00
UTC Time2017-06-25 19:12:15
Flight Rules vfr VFR
Wind240° at 10 Gusting to 16 kt
W.Decomp.*RWY 23: 10.0 kt HW 0.2 kt LCW
RWY 30: 3.3 kt HW 9.5 kt LCW
W.Rank240° ranks 26
Current wind is above 240° avg. (7.9)
Visibility9999 m
Phenomena:N/A
Clouds:N/A
Expected CloudBase > 10,000 ft AGL from Temp-Dew spread
CeilingNone
Temp26°C (ISA +15)
Dew Point01°C (20% RH)
AAT20.6°C
QNH1024 hPa
Density Alt3,701 ft
Elevation2,205 ft
Report Wrong Elevation
Raw Report
KPHP 251855Z AUTO 24010G16KT 10SM CLR 26/01 A3025 RMK AO2 SLP232
T02560011=

Extra information for KPHP:More info

Metar Taf Metar & Taf Last 4 Metars F.Rules Stats Wind Profile Meteogram Temp Stats Airport Information Weather charts Add Link Nearby VenuesMetar ALERT Operation Metar Decoded Social comments

AIRNAV info for KPHP